Time;durP1;ratioP1;P1;durP2;ratioP2;P2;SDS_P1;SDS_P2;PMS_P1;PMS_P2;Temp;Humidity;BMP_temperature;BMP_pressure;BME280_temperature;BME280_humidity;BME280_pressure;Samples;Min_cycle;Max_cycle;Signal;HPM_P1;HPM_P2
2023/09/03 00:00:13;;;;;;;6.57;3.05;;;;;;;;;;4983090;28;20097;-62
2023/09/03 00:02:41;;;;;;;4.80;2.45;;;;;;;;;;4983609;28;20078;-61
2023/09/03 00:05:10;;;;;;;7.72;3.17;;;;;;;;;;4986396;28;20046;-62
2023/09/03 00:07:38;;;;;;;8.05;3.42;;;;;;;;;;4985815;28;20050;-58
2023/09/03 00:10:09;;;;;;;6.75;3.45;;;;;;;;;;4987207;28;20132;-60
2023/09/03 00:12:37;;;;;;;7.80;3.42;;;;;;;;;;4984838;28;20082;-60
2023/09/03 00:15:06;;;;;;;6.53;2.80;;;;;;;;;;4987307;28;20062;-60
2023/09/03 00:17:35;;;;;;;5.93;2.92;;;;;;;;;;4985982;28;20694;-59
2023/09/03 00:20:03;;;;;;;6.88;2.95;;;;;;;;;;4982694;28;20042;-58
2023/09/03 00:22:31;;;;;;;6.70;2.50;;;;;;;;;;4986379;28;20081;-58
2023/09/03 00:25:00;;;;;;;4.43;2.58;;;;;;;;;;4988259;28;20476;-59
2023/09/03 00:27:30;;;;;;;3.17;2.30;;;;;;;;;;4987215;28;20209;-58
2023/09/03 00:29:58;;;;;;;6.75;2.38;;;;;;;;;;4984752;28;20108;-61
2023/09/03 00:32:27;;;;;;;3.28;2.00;;;;;;;;;;4984195;28;20538;-63
2023/09/03 00:34:55;;;;;;;5.05;2.70;;;;;;;;;;4986627;28;20046;-58
2023/09/03 00:37:23;;;;;;;6.50;2.40;;;;;;;;;;4987082;28;20101;-62
2023/09/03 00:39:52;;;;;;;4.78;2.22;;;;;;;;;;4984276;28;20046;-64
2023/09/03 00:42:20;;;;;;;4.65;2.33;;;;;;;;;;4987280;28;20636;-58
2023/09/03 00:44:50;;;;;;;3.85;2.30;;;;;;;;;;4985383;28;20081;-58
2023/09/03 00:47:19;;;;;;;4.25;2.15;;;;;;;;;;4986393;28;20038;-59
2023/09/03 00:49:47;;;;;;;4.57;2.50;;;;;;;;;;4982138;28;20156;-58
2023/09/03 00:52:19;;;;;;;3.35;1.98;;;;;;;;;;4987755;28;20062;-60
2023/09/03 00:54:47;;;;;;;5.30;2.97;;;;;;;;;;4985117;28;20109;-59
2023/09/03 00:57:16;;;;;;;4.28;2.10;;;;;;;;;;4983270;28;20483;-58
2023/09/03 00:59:46;;;;;;;5.60;2.30;;;;;;;;;;4986206;28;20565;-58
2023/09/03 01:02:19;;;;;;;3.95;2.22;;;;;;;;;;4996512;23;20101;-64
2023/09/03 01:04:48;;;;;;;7.85;2.63;;;;;;;;;;4960409;28;20053;-65
2023/09/03 01:07:17;;;;;;;5.07;2.03;;;;;;;;;;4965344;28;20054;-64
2023/09/03 01:09:46;;;;;;;3.40;2.25;;;;;;;;;;4967962;28;20491;-64
2023/09/03 01:12:18;;;;;;;5.43;2.15;;;;;;;;;;4967702;28;20053;-63
2023/09/03 01:14:53;;;;;;;3.58;2.05;;;;;;;;;;4967731;28;20046;-63
2023/09/03 01:17:27;;;;;;;4.30;2.42;;;;;;;;;;4962187;28;20273;-62
2023/09/03 01:20:05;;;;;;;7.53;2.88;;;;;;;;;;4962738;28;20259;-64
2023/09/03 01:22:40;;;;;;;6.60;3.63;;;;;;;;;;4965141;28;20046;-62
2023/09/03 01:25:14;;;;;;;3.80;2.10;;;;;;;;;;4969293;28;20098;-63
2023/09/03 01:27:48;;;;;;;7.43;2.30;;;;;;;;;;4964592;28;20372;-65
2023/09/03 01:30:18;;;;;;;6.53;2.60;;;;;;;;;;4965099;28;20107;-64
2023/09/03 01:32:47;;;;;;;3.83;2.20;;;;;;;;;;4964540;28;20082;-68
2023/09/03 01:35:16;;;;;;;5.18;2.13;;;;;;;;;;4965498;28;20061;-65
2023/09/03 01:37:44;;;;;;;5.80;2.10;;;;;;;;;;4968303;28;20486;-63
2023/09/03 01:40:13;;;;;;;4.75;2.30;;;;;;;;;;4965952;28;20046;-63
2023/09/03 01:42:42;;;;;;;4.05;2.22;;;;;;;;;;4967068;28;20043;-64
2023/09/03 01:45:11;;;;;;;4.25;2.30;;;;;;;;;;4963056;28;20093;-64
2023/09/03 01:47:44;;;;;;;3.78;2.00;;;;;;;;;;4966506;28;20110;-65
2023/09/03 01:50:19;;;;;;;5.68;2.28;;;;;;;;;;4966654;28;20054;-64
2023/09/03 01:52:48;;;;;;;3.67;2.00;;;;;;;;;;4965782;28;20105;-65
2023/09/03 01:55:18;;;;;;;6.45;2.72;;;;;;;;;;4964947;28;20462;-66
2023/09/03 01:57:49;;;;;;;4.35;2.28;;;;;;;;;;4966334;28;20058;-63
2023/09/03 02:00:19;;;;;;;4.65;2.50;;;;;;;;;;4967292;28;20108;-63
2023/09/03 02:02:51;;;;;;;4.43;2.58;;;;;;;;;;4965141;28;20113;-67
2023/09/03 02:05:19;;;;;;;5.22;2.60;;;;;;;;;;4966789;28;20051;-67
2023/09/03 02:07:48;;;;;;;4.40;2.45;;;;;;;;;;4968053;28;20043;-64
2023/09/03 02:10:17;;;;;;;6.03;2.70;;;;;;;;;;4966374;28;20062;-64
2023/09/03 02:12:45;;;;;;;6.15;2.95;;;;;;;;;;4965916;28;20070;-63
2023/09/03 02:15:13;;;;;;;6.15;2.20;;;;;;;;;;4967319;28;20101;-67
2023/09/03 02:17:42;;;;;;;2.80;1.92;;;;;;;;;;4962624;28;20485;-68
2023/09/03 02:20:12;;;;;;;4.70;2.10;;;;;;;;;;4966687;28;20411;-65
2023/09/03 02:22:41;;;;;;;6.22;2.33;;;;;;;;;;4966176;28;20101;-63
2023/09/03 02:25:09;;;;;;;3.63;1.83;;;;;;;;;;4968228;28;20073;-63
2023/09/03 02:27:37;;;;;;;3.65;2.13;;;;;;;;;;4964602;28;20101;-64
2023/09/03 02:30:06;;;;;;;5.22;2.38;;;;;;;;;;4965021;28;20105;-64
2023/09/03 02:32:35;;;;;;;7.60;2.15;;;;;;;;;;4966788;28;20046;-63
2023/09/03 02:35:03;;;;;;;3.80;2.25;;;;;;;;;;4963374;28;20547;-62
2023/09/03 02:37:33;;;;;;;5.93;1.92;;;;;;;;;;4965064;28;20500;-63
2023/09/03 02:40:02;;;;;;;4.07;2.58;;;;;;;;;;4966777;28;20054;-65
2023/09/03 02:42:30;;;;;;;4.15;2.40;;;;;;;;;;4966237;28;20081;-62
2023/09/03 02:44:59;;;;;;;5.82;2.88;;;;;;;;;;4963597;28;20465;-63
2023/09/03 02:47:27;;;;;;;5.13;2.72;;;;;;;;;;4966117;28;20054;-67
2023/09/03 02:49:56;;;;;;;5.30;2.42;;;;;;;;;;4961175;28;20054;-63
2023/09/03 02:52:24;;;;;;;5.75;2.90;;;;;;;;;;4961349;28;20160;-63
2023/09/03 02:54:54;;;;;;;7.43;3.05;;;;;;;;;;4963757;28;20085;-63
2023/09/03 02:57:22;;;;;;;8.80;3.15;;;;;;;;;;4963951;28;20384;-63
2023/09/03 02:59:51;;;;;;;7.25;3.05;;;;;;;;;;4964259;28;20047;-63
2023/09/03 03:02:19;;;;;;;7.78;2.90;;;;;;;;;;4965293;28;20117;-66
2023/09/03 03:04:47;;;;;;;5.60;2.70;;;;;;;;;;4965389;28;20051;-67
2023/09/03 03:07:16;;;;;;;6.03;2.50;;;;;;;;;;4964919;28;20054;-65
2023/09/03 03:09:44;;;;;;;4.82;2.10;;;;;;;;;;4965093;28;20061;-63
2023/09/03 03:12:14;;;;;;;5.53;2.42;;;;;;;;;;4959231;28;20097;-63
2023/09/03 03:14:42;;;;;;;4.07;2.10;;;;;;;;;;4965792;28;20602;-65
2023/09/03 03:17:11;;;;;;;3.58;2.22;;;;;;;;;;4963939;28;20599;-66
2023/09/03 03:19:39;;;;;;;4.43;2.67;;;;;;;;;;4964516;28;20096;-64
2023/09/03 03:22:07;;;;;;;3.95;1.98;;;;;;;;;;4964270;28;20047;-64
2023/09/03 03:24:36;;;;;;;5.10;2.45;;;;;;;;;;4964986;28;20050;-64
2023/09/03 03:27:04;;;;;;;4.93;2.83;;;;;;;;;;4962150;28;20050;-68
2023/09/03 03:29:34;;;;;;;4.47;2.60;;;;;;;;;;4965646;28;20097;-64
2023/09/03 03:32:04;;;;;;;4.63;2.45;;;;;;;;;;4959264;28;20046;-63
2023/09/03 03:34:32;;;;;;;4.20;2.45;;;;;;;;;;4962366;28;20107;-63
2023/09/03 03:37:00;;;;;;;6.78;2.97;;;;;;;;;;4962352;28;20100;-67
2023/09/03 03:39:29;;;;;;;7.35;2.60;;;;;;;;;;4967549;28;20508;-68
2023/09/03 03:41:57;;;;;;;3.92;2.00;;;;;;;;;;4964173;28;20140;-63
2023/09/03 03:44:26;;;;;;;4.85;2.67;;;;;;;;;;4965482;28;20504;-62
2023/09/03 03:46:55;;;;;;;5.40;2.67;;;;;;;;;;4965065;28;20674;-65
2023/09/03 03:49:24;;;;;;;6.22;2.42;;;;;;;;;;4961884;28;20137;-64
2023/09/03 03:51:52;;;;;;;6.07;2.72;;;;;;;;;;4960311;28;20424;-63
2023/09/03 03:54:20;;;;;;;5.53;2.75;;;;;;;;;;4965545;28;20042;-63
2023/09/03 03:56:49;;;;;;;5.07;2.47;;;;;;;;;;4963225;28;20043;-65
2023/09/03 03:59:17;;;;;;;5.22;2.10;;;;;;;;;;4964943;28;20051;-64
2023/09/03 04:01:46;;;;;;;5.47;2.47;;;;;;;;;;4966124;28;20514;-62
2023/09/03 04:04:15;;;;;;;4.05;2.00;;;;;;;;;;4960773;28;20460;-62
2023/09/03 04:06:44;;;;;;;5.07;2.60;;;;;;;;;;4960069;28;20059;-63
2023/09/03 04:09:12;;;;;;;6.82;2.30;;;;;;;;;;4958149;28;20058;-63
2023/09/03 04:11:41;;;;;;;5.45;2.05;;;;;;;;;;4964142;28;20125;-63
2023/09/03 04:14:09;;;;;;;6.53;2.33;;;;;;;;;;4967593;28;20101;-62
2023/09/03 04:16:37;;;;;;;4.13;2.00;;;;;;;;;;4966795;28;20054;-66
2023/09/03 04:19:06;;;;;;;4.82;1.95;;;;;;;;;;4964900;28;20054;-62
2023/09/03 04:21:35;;;;;;;3.97;1.92;;;;;;;;;;4960232;28;20047;-63
2023/09/03 04:24:06;;;;;;;4.93;2.03;;;;;;;;;;4965074;28;20071;-64
2023/09/03 04:26:36;;;;;;;3.65;2.10;;;;;;;;;;4965425;28;20043;-62
2023/09/03 04:29:07;;;;;;;4.00;2.00;;;;;;;;;;4963202;28;20097;-63
2023/09/03 04:31:36;;;;;;;3.83;2.05;;;;;;;;;;4961527;28;20094;-64
2023/09/03 04:34:05;;;;;;;3.78;2.25;;;;;;;;;;4960604;28;20464;-64
2023/09/03 04:36:35;;;;;;;4.90;2.30;;;;;;;;;;4963337;28;20074;-63
2023/09/03 04:39:04;;;;;;;6.28;2.25;;;;;;;;;;4965949;28;20047;-64
2023/09/03 04:41:33;;;;;;;7.03;2.92;;;;;;;;;;4966146;28;20050;-64
2023/09/03 04:44:08;;;;;;;3.95;2.20;;;;;;;;;;4959871;28;20499;-65
2023/09/03 04:46:36;;;;;;;5.47;2.45;;;;;;;;;;4968265;28;20114;-64
2023/09/03 04:49:05;;;;;;;4.03;1.95;;;;;;;;;;4962954;28;20053;-67
2023/09/03 04:51:34;;;;;;;8.77;2.38;;;;;;;;;;4961670;28;20130;-66
2023/09/03 04:54:04;;;;;;;3.80;2.15;;;;;;;;;;4967556;28;20050;-65
2023/09/03 04:56:32;;;;;;;4.97;2.60;;;;;;;;;;4968109;28;20130;-63
2023/09/03 04:59:01;;;;;;;5.70;2.28;;;;;;;;;;4965574;28;20558;-67
2023/09/03 05:01:29;;;;;;;4.07;2.00;;;;;;;;;;4967199;28;20071;-62
2023/09/03 05:03:58;;;;;;;4.35;2.45;;;;;;;;;;4964201;28;20055;-63
2023/09/03 05:06:26;;;;;;;4.43;2.33;;;;;;;;;;4961156;28;20144;-63
2023/09/03 05:08:54;;;;;;;4.47;2.47;;;;;;;;;;4967121;28;20129;-65
2023/09/03 05:11:24;;;;;;;5.47;2.00;;;;;;;;;;4965041;28;20047;-63
2023/09/03 05:13:52;;;;;;;6.32;2.13;;;;;;;;;;4966428;28;20459;-63
2023/09/03 05:16:22;;;;;;;4.28;2.08;;;;;;;;;;4969033;28;20054;-64
2023/09/03 05:18:51;;;;;;;3.55;2.05;;;;;;;;;;4964287;28;20046;-62
2023/09/03 05:21:19;;;;;;;7.47;2.30;;;;;;;;;;4964660;28;20119;-63
2023/09/03 05:23:49;;;;;;;4.57;1.88;;;;;;;;;;4959753;28;20168;-62
2023/09/03 05:26:17;;;;;;;3.38;2.58;;;;;;;;;;4958016;28;20100;-65
2023/09/03 05:28:47;;;;;;;3.92;2.28;;;;;;;;;;4965875;28;20051;-64
2023/09/03 05:31:15;;;;;;;8.80;1.95;;;;;;;;;;4960848;28;20566;-63
2023/09/03 05:33:43;;;;;;;2.70;1.80;;;;;;;;;;4965558;28;20051;-63
2023/09/03 05:36:12;;;;;;;2.83;2.00;;;;;;;;;;4966553;28;20042;-66
2023/09/03 05:38:42;;;;;;;5.20;2.30;;;;;;;;;;4963294;28;20133;-64
2023/09/03 05:41:11;;;;;;;3.47;1.95;;;;;;;;;;4966339;28;20051;-65
2023/09/03 05:43:39;;;;;;;3.00;2.00;;;;;;;;;;4967502;28;20106;-62
2023/09/03 05:46:09;;;;;;;7.22;1.70;;;;;;;;;;4961427;28;20051;-62
2023/09/03 05:48:37;;;;;;;8.20;2.60;;;;;;;;;;4964328;28;20043;-66
2023/09/03 05:51:06;;;;;;;5.32;1.85;;;;;;;;;;4968288;28;20070;-64
2023/09/03 05:53:35;;;;;;;4.97;2.15;;;;;;;;;;4961754;28;20134;-62
2023/09/03 05:56:07;;;;;;;2.83;1.90;;;;;;;;;;4964485;28;20050;-64
2023/09/03 05:58:35;;;;;;;4.88;2.10;;;;;;;;;;4966676;28;20051;-62
2023/09/03 06:01:07;;;;;;;3.35;1.73;;;;;;;;;;4966336;28;20054;-63
2023/09/03 06:03:37;;;;;;;3.35;2.17;;;;;;;;;;4963162;28;20086;-63
2023/09/03 06:06:06;;;;;;;4.20;2.20;;;;;;;;;;4959289;28;20492;-67
2023/09/03 06:08:36;;;;;;;4.10;2.03;;;;;;;;;;4960543;28;20051;-66
2023/09/03 06:11:05;;;;;;;8.18;2.25;;;;;;;;;;4962431;28;20074;-64
2023/09/03 06:13:34;;;;;;;3.25;1.88;;;;;;;;;;4963150;28;20368;-64
2023/09/03 06:16:03;;;;;;;3.67;2.10;;;;;;;;;;4964833;28;20160;-67
2023/09/03 06:18:31;;;;;;;4.18;2.58;;;;;;;;;;4963723;28;20047;-64
2023/09/03 06:21:01;;;;;;;3.55;2.20;;;;;;;;;;4964131;28;20543;-67
2023/09/03 06:23:30;;;;;;;3.55;2.10;;;;;;;;;;4965125;28;20612;-63
2023/09/03 06:25:58;;;;;;;2.97;2.00;;;;;;;;;;4964665;28;20579;-63
2023/09/03 06:28:28;;;;;;;5.47;2.10;;;;;;;;;;4962980;28;20054;-63
2023/09/03 06:30:58;;;;;;;7.43;2.22;;;;;;;;;;4962401;28;20461;-64
2023/09/03 06:33:27;;;;;;;3.65;2.17;;;;;;;;;;4959990;28;20058;-68
2023/09/03 06:35:56;;;;;;;6.40;2.20;;;;;;;;;;4957457;28;20110;-64
2023/09/03 06:38:26;;;;;;;3.33;1.92;;;;;;;;;;4962920;28;20051;-63
2023/09/03 06:40:54;;;;;;;5.35;2.13;;;;;;;;;;4961715;28;20102;-65
2023/09/03 06:43:23;;;;;;;4.60;2.30;;;;;;;;;;4964849;28;20130;-64
2023/09/03 06:45:51;;;;;;;8.27;3.58;;;;;;;;;;4961797;28;20050;-66
2023/09/03 06:48:19;;;;;;;7.45;3.65;;;;;;;;;;4961604;28;20484;-64
2023/09/03 06:50:49;;;;;;;6.28;3.28;;;;;;;;;;4957125;28;20144;-62
2023/09/03 06:53:18;;;;;;;5.18;3.08;;;;;;;;;;4959048;28;20221;-62
2023/09/03 06:55:47;;;;;;;6.82;4.15;;;;;;;;;;4962588;28;20101;-64
2023/09/03 06:58:16;;;;;;;5.20;3.17;;;;;;;;;;4962233;28;20122;-69
2023/09/03 07:00:44;;;;;;;5.72;3.33;;;;;;;;;;4961586;28;20050;-64
2023/09/03 07:03:17;;;;;;;5.78;3.53;;;;;;;;;;4960083;28;20109;-63
2023/09/03 07:05:45;;;;;;;7.28;3.80;;;;;;;;;;4962194;28;20241;-64
2023/09/03 07:08:15;;;;;;;8.75;3.38;;;;;;;;;;4960190;28;20583;-62
2023/09/03 07:10:43;;;;;;;7.18;3.20;;;;;;;;;;4965850;28;20133;-63
2023/09/03 07:13:13;;;;;;;6.82;3.10;;;;;;;;;;4962576;28;20109;-64
2023/09/03 07:15:41;;;;;;;5.18;3.17;;;;;;;;;;4964195;28;20472;-62
2023/09/03 07:18:09;;;;;;;3.90;3.00;;;;;;;;;;4962632;28;20209;-64
2023/09/03 07:20:38;;;;;;;4.85;3.15;;;;;;;;;;4961707;28;20058;-64
2023/09/03 07:23:07;;;;;;;7.07;3.13;;;;;;;;;;4961559;28;20054;-65
2023/09/03 07:25:35;;;;;;;6.07;3.78;;;;;;;;;;4963426;28;20097;-64
2023/09/03 07:28:04;;;;;;;6.35;3.58;;;;;;;;;;4964966;28;20046;-62
2023/09/03 07:30:33;;;;;;;4.03;3.00;;;;;;;;;;4959649;28;20050;-66
2023/09/03 07:33:02;;;;;;;5.38;3.00;;;;;;;;;;4962776;28;20393;-63
2023/09/03 07:35:32;;;;;;;6.35;3.08;;;;;;;;;;4964590;28;20495;-69
2023/09/03 07:38:01;;;;;;;5.00;3.42;;;;;;;;;;4960832;28;20062;-64
2023/09/03 07:40:29;;;;;;;5.25;2.65;;;;;;;;;;4964598;28;20935;-62
2023/09/03 07:42:58;;;;;;;5.63;2.88;;;;;;;;;;4962000;28;20455;-63
2023/09/03 07:45:26;;;;;;;4.97;3.13;;;;;;;;;;4963579;28;20063;-63
2023/09/03 07:47:56;;;;;;;4.35;2.47;;;;;;;;;;4959747;28;20505;-66
2023/09/03 07:50:26;;;;;;;5.47;2.53;;;;;;;;;;4962738;28;20122;-63
2023/09/03 07:52:54;;;;;;;4.07;2.40;;;;;;;;;;4957615;28;20062;-64
2023/09/03 07:55:23;;;;;;;7.30;2.50;;;;;;;;;;4950548;28;20050;-62
2023/09/03 07:57:51;;;;;;;5.68;2.60;;;;;;;;;;4962685;28;20051;-64
2023/09/03 08:00:20;;;;;;;6.03;2.38;;;;;;;;;;4958293;28;20524;-64
2023/09/03 08:02:49;;;;;;;6.72;2.35;;;;;;;;;;4963539;28;20051;-64
2023/09/03 08:05:18;;;;;;;2.63;1.70;;;;;;;;;;4957290;28;20098;-63
2023/09/03 08:07:47;;;;;;;2.85;1.75;;;;;;;;;;4962647;28;20046;-63
2023/09/03 08:10:15;;;;;;;3.67;1.83;;;;;;;;;;4962582;28;20078;-66
2023/09/03 08:12:44;;;;;;;3.67;1.77;;;;;;;;;;4960999;28;20090;-63
2023/09/03 08:15:13;;;;;;;2.17;1.40;;;;;;;;;;4962728;28;20117;-64
2023/09/03 08:17:43;;;;;;;2.75;1.85;;;;;;;;;;4964715;28;20047;-65
2023/09/03 08:20:12;;;;;;;2.55;1.67;;;;;;;;;;4962902;28;20053;-66
2023/09/03 08:22:42;;;;;;;2.67;1.50;;;;;;;;;;4964281;28;20057;-65
2023/09/03 08:25:10;;;;;;;4.82;2.03;;;;;;;;;;4966193;28;20070;-62
2023/09/03 08:27:40;;;;;;;3.00;1.70;;;;;;;;;;4962791;28;20078;-61
2023/09/03 08:30:11;;;;;;;3.35;1.50;;;;;;;;;;4957250;28;20776;-63
2023/09/03 08:32:39;;;;;;;2.78;1.75;;;;;;;;;;4965950;28;20043;-62
2023/09/03 08:35:08;;;;;;;3.13;1.48;;;;;;;;;;4963609;28;20518;-62
2023/09/03 08:37:37;;;;;;;3.40;1.58;;;;;;;;;;4962647;28;20105;-66
2023/09/03 08:40:07;;;;;;;2.95;1.63;;;;;;;;;;4964550;28;20699;-62
2023/09/03 08:42:37;;;;;;;2.50;1.30;;;;;;;;;;4962262;28;20050;-64
2023/09/03 08:45:06;;;;;;;2.08;1.27;;;;;;;;;;4964983;28;20054;-62
2023/09/03 08:47:35;;;;;;;1.67;1.13;;;;;;;;;;4963819;28;20476;-61
2023/09/03 08:50:04;;;;;;;1.25;1.10;;;;;;;;;;4957243;28;20046;-65
2023/09/03 08:52:34;;;;;;;1.42;1.00;;;;;;;;;;4966085;28;20047;-65
2023/09/03 08:55:03;;;;;;;2.95;1.15;;;;;;;;;;4967904;28;20129;-64
2023/09/03 08:57:34;;;;;;;2.22;1.10;;;;;;;;;;4967097;28;20059;-65
2023/09/03 09:00:05;;;;;;;2.13;1.20;;;;;;;;;;4966254;28;20053;-62
2023/09/03 09:02:34;;;;;;;1.85;1.15;;;;;;;;;;4968569;28;20066;-63
2023/09/03 09:05:03;;;;;;;2.25;1.23;;;;;;;;;;4963294;28;20047;-63
2023/09/03 09:07:31;;;;;;;1.67;0.90;;;;;;;;;;4965091;28;20054;-62
2023/09/03 09:10:04;;;;;;;2.70;1.10;;;;;;;;;;4963588;28;20043;-66
2023/09/03 09:12:38;;;;;;;2.33;1.10;;;;;;;;;;4967527;28;20105;-64
2023/09/03 09:15:07;;;;;;;1.30;1.10;;;;;;;;;;4967711;28;20085;-65
2023/09/03 09:17:38;;;;;;;1.65;1.10;;;;;;;;;;4964445;28;20546;-66
2023/09/03 09:20:10;;;;;;;1.27;0.93;;;;;;;;;;4962182;28;20344;-63
2023/09/03 09:22:42;;;;;;;2.35;1.20;;;;;;;;;;4966124;28;20511;-62
2023/09/03 09:25:10;;;;;;;1.88;1.08;;;;;;;;;;4965888;28;20405;-62
2023/09/03 09:27:40;;;;;;;2.20;1.25;;;;;;;;;;4965107;28;20042;-64
2023/09/03 09:30:13;;;;;;;3.63;1.10;;;;;;;;;;4964989;28;20053;-64
2023/09/03 09:32:42;;;;;;;1.95;1.10;;;;;;;;;;4966797;28;20059;-63
2023/09/03 09:35:11;;;;;;;1.55;1.13;;;;;;;;;;4967456;28;20459;-63
2023/09/03 09:37:40;;;;;;;4.28;1.10;;;;;;;;;;4965580;28;20043;-63
2023/09/03 09:40:09;;;;;;;1.85;1.00;;;;;;;;;;4964834;28;20043;-63
2023/09/03 09:42:52;;;;;;;1.45;0.93;;;;;;;;;;4964212;28;20057;-64
2023/09/03 09:45:22;;;;;;;1.48;0.95;;;;;;;;;;4969010;28;20043;-63
2023/09/03 09:48:03;;;;;;;1.92;1.02;;;;;;;;;;4964870;28;20039;-62
2023/09/03 09:50:35;;;;;;;2.42;1.20;;;;;;;;;;4963793;28;20051;-63
2023/09/03 09:53:04;;;;;;;1.92;1.20;;;;;;;;;;4959835;28;20047;-66
2023/09/03 09:55:32;;;;;;;1.83;1.48;;;;;;;;;;4964871;28;20074;-62
2023/09/03 09:58:01;;;;;;;4.22;1.10;;;;;;;;;;4964500;28;20441;-62
2023/09/03 10:00:34;;;;;;;1.38;0.80;;;;;;;;;;4966163;28;20047;-63
2023/09/03 10:03:04;;;;;;;1.50;1.02;;;;;;;;;;4968030;28;20051;-63
2023/09/03 10:05:35;;;;;;;2.20;1.23;;;;;;;;;;4959720;28;20070;-64
2023/09/03 10:08:04;;;;;;;2.03;1.30;;;;;;;;;;4963293;28;20515;-64
2023/09/03 10:10:32;;;;;;;1.70;1.05;;;;;;;;;;4965660;28;20043;-62
2023/09/03 10:13:02;;;;;;;1.20;1.10;;;;;;;;;;4963679;28;20125;-62
2023/09/03 10:15:31;;;;;;;2.42;1.10;;;;;;;;;;4962052;28;20058;-64
2023/09/03 10:18:03;;;;;;;2.83;1.10;;;;;;;;;;4964908;28;20049;-63
2023/09/03 10:20:32;;;;;;;1.50;1.00;;;;;;;;;;4959127;28;20051;-63
2023/09/03 10:23:03;;;;;;;2.03;0.85;;;;;;;;;;4964914;28;20054;-63
2023/09/03 10:25:33;;;;;;;1.95;0.98;;;;;;;;;;4966097;28;20555;-62
2023/09/03 10:28:05;;;;;;;1.40;0.90;;;;;;;;;;4963565;28;20042;-64
2023/09/03 10:30:36;;;;;;;2.47;1.10;;;;;;;;;;4963117;28;20614;-65
2023/09/03 10:33:07;;;;;;;2.92;1.67;;;;;;;;;;4962562;28;20070;-63
2023/09/03 10:35:36;;;;;;;2.95;1.42;;;;;;;;;;4959527;28;20080;-68
2023/09/03 10:38:06;;;;;;;1.60;1.00;;;;;;;;;;4963976;28;20566;-69
2023/09/03 10:40:34;;;;;;;1.73;1.17;;;;;;;;;;4964585;28;20105;-65
2023/09/03 10:43:22;;;;;;;3.13;1.13;;;;;;;;;;4961589;28;20508;-63
2023/09/03 10:46:06;;;;;;;2.33;1.05;;;;;;;;;;4953728;28;20050;-63
2023/09/03 10:48:36;;;;;;;1.88;1.67;;;;;;;;;;4960120;28;20047;-64
2023/09/03 10:51:05;;;;;;;1.52;1.30;;;;;;;;;;4966763;28;20152;-64
2023/09/03 10:53:39;;;;;;;1.40;1.10;;;;;;;;;;4967986;28;20133;-62
2023/09/03 10:56:12;;;;;;;1.00;0.90;;;;;;;;;;4963435;28;20062;-62
2023/09/03 10:59:01;;;;;;;1.10;1.00;;;;;;;;;;4962556;28;20047;-64
2023/09/03 11:01:31;;;;;;;3.05;1.30;;;;;;;;;;4953636;28;20047;-64
2023/09/03 11:04:02;;;;;;;3.28;1.05;;;;;;;;;;4963266;28;20046;-61
2023/09/03 11:06:31;;;;;;;1.10;0.90;;;;;;;;;;4961385;28;20058;-63
2023/09/03 11:09:18;;;;;;;1.40;0.93;;;;;;;;;;4965753;28;20134;-65
2023/09/03 11:11:46;;;;;;;1.30;0.90;;;;;;;;;;4963333;28;20124;-66
2023/09/03 11:14:16;;;;;;;0.98;0.80;;;;;;;;;;4967375;28;20472;-64
2023/09/03 11:16:45;;;;;;;1.20;1.00;;;;;;;;;;4965003;28;20057;-63
2023/09/03 11:19:14;;;;;;;2.30;1.17;;;;;;;;;;4961912;28;20145;-68
2023/09/03 11:21:43;;;;;;;2.22;1.40;;;;;;;;;;4963721;28;20515;-63
2023/09/03 11:24:15;;;;;;;1.33;1.10;;;;;;;;;;4957484;28;20078;-63
2023/09/03 11:26:43;;;;;;;1.42;1.20;;;;;;;;;;4963372;28;20319;-62
2023/09/03 11:29:19;;;;;;;2.00;1.33;;;;;;;;;;4966653;28;20134;-64
2023/09/03 11:31:48;;;;;;;1.88;1.10;;;;;;;;;;4963829;28;20515;-64
2023/09/03 11:34:20;;;;;;;1.63;1.00;;;;;;;;;;4961040;28;20174;-65
2023/09/03 11:36:52;;;;;;;2.40;1.40;;;;;;;;;;4966164;28;20444;-64
2023/09/03 11:39:20;;;;;;;0.85;0.82;;;;;;;;;;4957324;28;20480;-63
2023/09/03 11:41:49;;;;;;;1.73;1.00;;;;;;;;;;4965946;28;20046;-64
2023/09/03 11:44:17;;;;;;;1.70;1.00;;;;;;;;;;4962977;28;20075;-64
2023/09/03 11:46:57;;;;;;;4.15;1.10;;;;;;;;;;4963891;28;20382;-64
2023/09/03 11:49:27;;;;;;;1.60;1.00;;;;;;;;;;4966029;28;20046;-65
2023/09/03 11:51:55;;;;;;;1.73;1.08;;;;;;;;;;4964208;28;20133;-63
2023/09/03 11:54:24;;;;;;;1.50;1.10;;;;;;;;;;4969970;28;20336;-63
2023/09/03 11:56:53;;;;;;;1.13;0.80;;;;;;;;;;4964130;28;20051;-67
2023/09/03 11:59:21;;;;;;;1.15;1.05;;;;;;;;;;4966369;28;20676;-67
2023/09/03 12:01:50;;;;;;;0.90;0.75;;;;;;;;;;4967054;28;20046;-63
2023/09/03 12:04:19;;;;;;;1.55;0.90;;;;;;;;;;4965750;28;20488;-66
2023/09/03 12:06:48;;;;;;;1.48;0.98;;;;;;;;;;4969727;28;20469;-63
2023/09/03 12:09:21;;;;;;;0.82;0.77;;;;;;;;;;4967692;28;20307;-64
2023/09/03 12:11:49;;;;;;;1.35;0.98;;;;;;;;;;4964898;28;20507;-64
2023/09/03 12:14:29;;;;;;;1.10;1.00;;;;;;;;;;4965295;28;20062;-62
2023/09/03 12:16:57;;;;;;;1.08;0.80;;;;;;;;;;4965942;28;20062;-64
2023/09/03 12:19:25;;;;;;;1.27;0.88;;;;;;;;;;4971062;28;20050;-65
2023/09/03 12:21:55;;;;;;;1.25;1.05;;;;;;;;;;4969020;28;20094;-62
2023/09/03 12:24:28;;;;;;;1.13;0.77;;;;;;;;;;4966422;28;20046;-66
2023/09/03 12:27:01;;;;;;;1.10;1.00;;;;;;;;;;4965096;28;20055;-65
2023/09/03 12:29:34;;;;;;;1.60;0.90;;;;;;;;;;4966371;28;20090;-69
2023/09/03 12:32:19;;;;;;;1.65;1.00;;;;;;;;;;4966469;28;20094;-66
2023/09/03 12:34:49;;;;;;;1.20;0.98;;;;;;;;;;4966875;28;20404;-69
2023/09/03 12:37:19;;;;;;;0.85;0.70;;;;;;;;;;4967382;28;20149;-63
2023/09/03 12:39:48;;;;;;;1.17;0.88;;;;;;;;;;4967911;28;20093;-68
2023/09/03 12:42:17;;;;;;;1.05;0.77;;;;;;;;;;4964733;28;20051;-63
2023/09/03 12:44:45;;;;;;;0.82;0.80;;;;;;;;;;4964593;28;20566;-63
2023/09/03 12:47:14;;;;;;;0.70;0.70;;;;;;;;;;4963919;28;20039;-63
2023/09/03 12:49:42;;;;;;;0.88;0.70;;;;;;;;;;4953190;28;20075;-64
2023/09/03 12:52:11;;;;;;;0.93;0.82;;;;;;;;;;4954970;28;20035;-62
2023/09/03 12:54:40;;;;;;;4.55;0.90;;;;;;;;;;4952151;28;20078;-66
2023/09/03 12:57:09;;;;;;;1.27;0.80;;;;;;;;;;4957102;28;20051;-65
2023/09/03 12:59:37;;;;;;;3.85;0.95;;;;;;;;;;4965653;28;20050;-64
2023/09/03 13:02:06;;;;;;;1.25;0.80;;;;;;;;;;4961496;28;20051;-71
2023/09/03 13:04:34;;;;;;;1.10;0.80;;;;;;;;;;4966427;28;20047;-69
2023/09/03 13:07:02;;;;;;;1.30;0.82;;;;;;;;;;4965791;28;20562;-67
2023/09/03 13:09:34;;;;;;;1.35;1.00;;;;;;;;;;4965429;28;20648;-66
2023/09/03 13:12:04;;;;;;;1.10;0.90;;;;;;;;;;4965530;28;20455;-69
2023/09/03 13:14:34;;;;;;;2.75;0.90;;;;;;;;;;4956595;28;20328;-67
2023/09/03 13:17:02;;;;;;;0.90;0.60;;;;;;;;;;4962560;28;20360;-66
2023/09/03 13:19:30;;;;;;;1.70;0.93;;;;;;;;;;4964278;28;20850;-66
2023/09/03 13:21:59;;;;;;;1.17;0.70;;;;;;;;;;4958976;28;20058;-67
2023/09/03 13:24:27;;;;;;;3.03;0.75;;;;;;;;;;4965807;28;20053;-66
2023/09/03 13:26:55;;;;;;;0.77;0.77;;;;;;;;;;4964075;28;20125;-67
2023/09/03 13:29:25;;;;;;;1.05;0.82;;;;;;;;;;4962757;28;20043;-65
2023/09/03 13:31:53;;;;;;;3.42;0.80;;;;;;;;;;4958354;28;20054;-65
2023/09/03 13:34:22;;;;;;;1.50;0.93;;;;;;;;;;4964610;28;20050;-69
2023/09/03 13:36:50;;;;;;;1.27;0.77;;;;;;;;;;4957566;28;20109;-67
2023/09/03 13:39:19;;;;;;;1.13;0.70;;;;;;;;;;4963980;28;20095;-66
2023/09/03 13:41:48;;;;;;;1.00;0.75;;;;;;;;;;4963045;28;20046;-66
2023/09/03 13:44:17;;;;;;;2.03;0.98;;;;;;;;;;4959954;28;20062;-69
2023/09/03 13:46:46;;;;;;;1.48;1.08;;;;;;;;;;4962898;28;20206;-67
2023/09/03 13:49:15;;;;;;;1.30;1.10;;;;;;;;;;4958746;28;20053;-68
2023/09/03 13:51:44;;;;;;;1.85;0.90;;;;;;;;;;4964358;28;20145;-73
2023/09/03 13:54:12;;;;;;;1.17;1.00;;;;;;;;;;4964474;28;20109;-68
2023/09/03 13:56:41;;;;;;;0.93;0.70;;;;;;;;;;4961981;28;20125;-65
2023/09/03 13:59:09;;;;;;;1.38;0.88;;;;;;;;;;4956581;28;20058;-65
2023/09/03 14:01:39;;;;;;;2.08;0.90;;;;;;;;;;4963564;28;20405;-70
2023/09/03 14:04:09;;;;;;;0.90;0.70;;;;;;;;;;4964199;28;20055;-66
2023/09/03 14:06:38;;;;;;;1.55;0.90;;;;;;;;;;4966553;28;20047;-65
2023/09/03 14:09:06;;;;;;;2.33;0.90;;;;;;;;;;4965438;28;20046;-69
2023/09/03 14:11:37;;;;;;;1.25;0.77;;;;;;;;;;4963018;28;20054;-66
2023/09/03 14:14:06;;;;;;;1.88;0.80;;;;;;;;;;4964902;28;20050;-67
2023/09/03 14:16:35;;;;;;;1.27;0.88;;;;;;;;;;4961504;28;20051;-70
2023/09/03 14:19:03;;;;;;;1.92;0.90;;;;;;;;;;4961619;28;20130;-67
2023/09/03 14:21:33;;;;;;;1.25;0.60;;;;;;;;;;4963665;28;20463;-66
2023/09/03 14:24:01;;;;;;;0.80;0.60;;;;;;;;;;4964141;28;20051;-71
2023/09/03 14:26:30;;;;;;;0.90;0.60;;;;;;;;;;4960422;28;20058;-68
2023/09/03 14:28:58;;;;;;;1.13;0.90;;;;;;;;;;4960013;28;20101;-70
2023/09/03 14:31:27;;;;;;;1.38;0.93;;;;;;;;;;4959485;28;20108;-69
2023/09/03 14:33:55;;;;;;;1.27;0.80;;;;;;;;;;4965021;28;20054;-67
2023/09/03 14:36:23;;;;;;;1.30;0.60;;;;;;;;;;4963196;28;20109;-66
2023/09/03 14:38:53;;;;;;;0.75;0.57;;;;;;;;;;4967015;28;20043;-66
2023/09/03 14:41:21;;;;;;;1.58;0.82;;;;;;;;;;4960181;28;20133;-65
2023/09/03 14:43:50;;;;;;;1.75;0.77;;;;;;;;;;4963974;28;20051;-65
2023/09/03 14:46:18;;;;;;;2.38;0.80;;;;;;;;;;4960568;28;20138;-64
2023/09/03 14:48:47;;;;;;;1.70;1.17;;;;;;;;;;4963468;28;20891;-69
2023/09/03 14:51:15;;;;;;;0.80;0.70;;;;;;;;;;4956447;28;20053;-71
2023/09/03 14:53:43;;;;;;;1.30;0.70;;;;;;;;;;4958166;28;20148;-68
2023/09/03 14:56:14;;;;;;;1.40;0.70;;;;;;;;;;4960303;28;20057;-69